Luverne, MN

3:24 PM CDT on April 24, 2017 (GMT -0500)
Luverne

Weather History for KLYV - October, 2012

Change the Weather History Date:

Saturday, October 6, 2012

  Actual Average (KPQN) Record (KPQN)
Temperature  
Mean Temperature 35 °F -  
Max Temperature 44 °F 62 °F 87 °F (2007)
Min Temperature 26 °F 40 °F 21 °F (2012)
Degree Days  
Heating Degree Days 30    
Moisture  
Dew Point 22 °F    
Average Humidity 59    
Maximum Humidity 80    
Minimum Humidity 34    
Precipitation  
Precipitation 0.00 in - - ()
Sea Level Pressure  
Sea Level Pressure 30.29 in    
Wind  
Wind Speed 7 mph (NNW)    
Max Wind Speed 15 mph    
Max Gust Speed 25 mph    
Visibility 10 miles    
Events      
Averages and records for this station are not official NWS values.
T = Trace of Precipitation, MM = Missing Value Source: NWS Daily Summary

Daily Weather History Graph

Daily Weather History Graph

Search for Another Location

Airport or City:

Trip Planner

Search our weather history database for the weather conditions in past years. The results will help you decide how hot, cold, wet, or windy it might be!

Date:

Astronomy

Oct. 06, 2012 Rise Set
Actual Time 7:28 AM CDT 6:56 PM CDT
Civil Twilight 7:00 AM CDT 7:24 PM CDT
Nautical Twilight 6:27 AM CDT 7:57 PM CDT
Astronomical Twilight 5:53 AM CDT 8:31 PM CDT
Moon 11:04 PM CDT (10/6) 1:32 PM CDT (10/6)
Length of Visible Light 12h 24m
Length of Day
11h 27m
Waning Gibbous, 65% of the Moon is Illuminated
Oct 6
Waning Gibbous
Oct 8
Last Quarter
Oct 15
New
Oct 21
First Quarter
Oct 29
Full

Hourly Weather History & Observations

Time (CDT) Temp. Windchill Dew Point Humidity Pressure Visibility Wind Dir Wind Speed Gust Speed Precip Events Conditions
12:14 AM 30.2 °F 25.4 °F 21.2 °F 69% 30.28 in 10.0 mi NW 4.6 mph - N/A   Clear
12:35 AM 30.2 °F 24.3 °F 21.2 °F 69% 30.27 in 10.0 mi NW 5.8 mph - N/A   Clear
12:54 AM 28.4 °F 22.2 °F 19.4 °F 69% 30.28 in 10.0 mi WNW 5.8 mph - N/A   Clear
1:14 AM 28.4 °F 22.2 °F 21.2 °F 74% 30.28 in 10.0 mi NW 5.8 mph - N/A   Clear
1:34 AM 28.4 °F 22.2 °F 21.2 °F 74% 30.27 in 10.0 mi NW 5.8 mph - N/A   Scattered Clouds
1:54 AM 28.4 °F 20.4 °F 21.2 °F 74% 30.27 in 10.0 mi WNW 8.1 mph - N/A   Scattered Clouds
2:15 AM 28.4 °F 22.2 °F 21.2 °F 74% 30.27 in 10.0 mi WNW 5.8 mph - N/A   Scattered Clouds
2:34 AM 30.2 °F 24.3 °F 23.0 °F 75% 30.27 in 10.0 mi WNW 5.8 mph - N/A   Overcast
2:54 AM 32.0 °F 25.6 °F 23.0 °F 69% 30.27 in 10.0 mi WNW 6.9 mph - N/A   Overcast
3:15 AM 32.0 °F 25.6 °F 23.0 °F 69% 30.27 in 10.0 mi WNW 6.9 mph - N/A   Overcast
3:34 AM 30.2 °F 24.3 °F 23.0 °F 75% 30.27 in 10.0 mi WNW 5.8 mph - N/A   Scattered Clouds
3:54 AM 30.2 °F 25.4 °F 23.0 °F 75% 30.27 in 10.0 mi West 4.6 mph - N/A   Scattered Clouds
4:34 AM 32.0 °F 28.7 °F 23.0 °F 69% 30.27 in 10.0 mi WNW 3.5 mph - N/A   Overcast
4:54 AM 32.0 °F 26.4 °F 24.8 °F 75% 30.27 in 10.0 mi WNW 5.8 mph - N/A   Overcast
5:15 AM 33.8 °F 29.6 °F 24.8 °F 70% 30.27 in 10.0 mi NW 4.6 mph - N/A   Overcast
5:34 AM 33.8 °F 28.6 °F 26.6 °F 75% 30.28 in 10.0 mi WNW 5.8 mph - N/A   Overcast
5:54 AM 33.8 °F 25.8 °F 26.6 °F 75% 30.28 in 10.0 mi NW 10.4 mph - N/A   Overcast
6:14 AM 32.0 °F 24.2 °F 24.8 °F 75% 30.29 in 10.0 mi West 9.2 mph - N/A   Overcast
6:34 AM 32.0 °F 23.6 °F 24.8 °F 75% 30.30 in 10.0 mi West 10.4 mph - N/A   Overcast
6:54 AM 32.0 °F 24.2 °F 24.8 °F 75% 30.31 in 10.0 mi West 9.2 mph - N/A   Overcast
7:14 AM 32.0 °F 24.2 °F 26.6 °F 80% 30.31 in 10.0 mi West 9.2 mph - N/A   Overcast
7:35 AM 32.0 °F 24.2 °F 24.8 °F 75% 30.31 in 10.0 mi West 9.2 mph - N/A   Overcast
7:54 AM 32.0 °F 24.2 °F 24.8 °F 75% 30.32 in 10.0 mi WNW 9.2 mph - N/A   Overcast
8:14 AM 33.8 °F 27.0 °F 26.6 °F 75% 30.33 in 10.0 mi NW 8.1 mph - N/A   Overcast
8:35 AM 35.6 °F 27.1 °F 24.8 °F 65% 30.33 in 10.0 mi North 12.7 mph - N/A   Overcast
8:54 AM 33.8 °F 24.3 °F 26.6 °F 75% 30.33 in 10.0 mi North 13.8 mph - N/A   Overcast
9:14 AM 35.6 °F 26.2 °F 24.8 °F 65% 30.33 in 10.0 mi North 15.0 mph 19.6 mph N/A   Mostly Cloudy
9:35 AM 35.6 °F 26.2 °F 24.8 °F 65% 30.34 in 10.0 mi North 15.0 mph - N/A   Overcast
9:54 AM 35.6 °F 27.1 °F 23.0 °F 60% 30.33 in 10.0 mi North 12.7 mph 20.7 mph N/A   Mostly Cloudy
10:14 AM 37.4 °F 29.8 °F 24.8 °F 60% 30.33 in 10.0 mi North 11.5 mph 23.0 mph N/A   Scattered Clouds
10:35 AM 37.4 °F 29.8 °F 23.0 °F 56% 30.33 in 10.0 mi North 11.5 mph 20.7 mph N/A   Scattered Clouds
10:54 AM 37.4 °F 29.3 °F 23.0 °F 56% 30.33 in 10.0 mi North 12.7 mph 20.7 mph N/A   Scattered Clouds
11:14 AM 39.2 °F 33.6 °F 23.0 °F 52% 30.33 in 10.0 mi North 8.1 mph 25.3 mph N/A   Mostly Cloudy
11:35 AM 39.2 °F 32.0 °F 23.0 °F 52% 30.34 in 10.0 mi NNW 11.5 mph 21.9 mph N/A   Overcast
11:54 AM 39.2 °F 31.6 °F 23.0 °F 52% 30.34 in 10.0 mi NNW 12.7 mph 21.9 mph N/A   Overcast
12:15 PM 41.0 °F 33.1 °F 23.0 °F 49% 30.33 in 10.0 mi North 15.0 mph 19.6 mph N/A   Overcast
12:34 PM 41.0 °F 35.8 °F 23.0 °F 49% 30.33 in 10.0 mi North 8.1 mph 18.4 mph N/A   Overcast
12:54 PM 41.0 °F 34.7 °F 21.2 °F 45% 30.33 in 10.0 mi North 10.4 mph 16.1 mph N/A   Mostly Cloudy
1:15 PM 42.8 °F 36.2 °F 23.0 °F 46% 30.33 in 10.0 mi North 12.7 mph 16.1 mph N/A   Scattered Clouds
1:34 PM 41.0 °F 36.4 °F 21.2 °F 45% 30.32 in 10.0 mi NNE 6.9 mph 16.1 mph N/A   Scattered Clouds
1:54 PM 42.8 °F 37.5 °F 21.2 °F 42% 30.31 in 10.0 mi North 9.2 mph - N/A   Mostly Cloudy
2:14 PM 42.8 °F 37.5 °F 21.2 °F 42% 30.30 in 10.0 mi NNW 9.2 mph 18.4 mph N/A   Mostly Cloudy
2:34 PM 42.8 °F 36.2 °F 19.4 °F 39% 30.29 in 10.0 mi NNW 12.7 mph 16.1 mph N/A   Scattered Clouds
2:55 PM 44.6 °F 38.4 °F 19.4 °F 37% 30.29 in 10.0 mi North 12.7 mph 17.3 mph N/A   Scattered Clouds
3:14 PM 44.6 °F 39.7 °F 19.4 °F 37% 30.28 in 10.0 mi NNE 9.2 mph - N/A   Scattered Clouds
3:34 PM 44.6 °F 39.2 °F 19.4 °F 37% 30.28 in 10.0 mi North 10.4 mph 16.1 mph N/A   Scattered Clouds
3:55 PM 44.6 °F 40.2 °F 17.6 °F 34% 30.28 in 10.0 mi NNW 8.1 mph 17.3 mph N/A   Clear
4:14 PM 44.6 °F 39.7 °F 19.4 °F 37% 30.27 in 10.0 mi North 9.2 mph 18.4 mph N/A   Scattered Clouds
4:34 PM 44.6 °F 39.7 °F 19.4 °F 37% 30.27 in 10.0 mi North 9.2 mph - N/A   Clear
5:14 PM 42.8 °F 36.2 °F 19.4 °F 39% 30.27 in 10.0 mi North 12.7 mph 17.3 mph N/A   Clear
5:34 PM 42.8 °F 37.0 °F 19.4 °F 39% 30.27 in 10.0 mi North 10.4 mph - N/A   Clear
5:55 PM 42.8 °F 37.0 °F 19.4 °F 39% 30.27 in 10.0 mi North 10.4 mph - N/A   Clear
6:14 PM 42.8 °F 38.0 °F 21.2 °F 42% 30.27 in 10.0 mi North 8.1 mph - N/A   Clear
6:34 PM 41.0 °F 36.4 °F 21.2 °F 45% 30.27 in 10.0 mi North 6.9 mph - N/A   Clear
6:55 PM 39.2 °F 35.0 °F 21.2 °F 49% 30.28 in 10.0 mi North 5.8 mph - N/A   Clear
7:14 PM 37.4 °F 33.8 °F 21.2 °F 52% 30.28 in 10.0 mi NNE 4.6 mph - N/A   Clear
7:34 PM 37.4 °F 34.9 °F 21.2 °F 52% 30.28 in 10.0 mi NNE 3.5 mph - N/A   Clear
7:55 PM 37.4 °F 33.8 °F 21.2 °F 52% 30.29 in 10.0 mi North 4.6 mph - N/A   Clear
8:14 PM 35.6 °F 32.8 °F 21.2 °F 56% 30.29 in 10.0 mi NNE 3.5 mph - N/A   Clear
8:34 PM 35.6 °F 32.8 °F 21.2 °F 56% 30.29 in 10.0 mi NNE 3.5 mph - N/A   Clear
8:55 PM 35.6 °F - 21.2 °F 56% 30.29 in 10.0 mi Calm Calm - N/A   Clear
9:14 PM 33.8 °F - 21.2 °F 60% 30.29 in 10.0 mi Calm Calm - N/A   Clear
9:34 PM 33.8 °F - 21.2 °F 60% 30.29 in 10.0 mi Calm Calm - N/A   Clear
9:55 PM 32.0 °F - 21.2 °F 64% 30.29 in 10.0 mi Calm Calm - N/A   Clear
10:14 PM 32.0 °F - 21.2 °F 64% 30.29 in 10.0 mi Calm Calm - N/A   Clear
10:34 PM 30.2 °F - 19.4 °F 64% 30.29 in 10.0 mi Calm Calm - N/A   Clear
10:55 PM 28.4 °F - 17.6 °F 64% 30.29 in 10.0 mi Calm Calm - N/A   Clear
11:14 PM 28.4 °F - 19.4 °F 69% 30.29 in 10.0 mi Calm Calm - N/A   Clear
11:34 PM 26.6 °F - 19.4 °F 74% 30.29 in 10.0 mi Calm Calm - N/A   Clear
11:55 PM 26.6 °F - 17.6 °F 69% 30.27 in 10.0 mi Calm Calm - N/A   Clear